createdAt,value
2022-11-08T00:00:19.918Z,11.00
2022-11-08T00:03:22.071Z,11.00
2022-11-08T00:06:43.010Z,11.00
2022-11-08T00:10:03.739Z,11.00
2022-11-08T00:13:25.380Z,11.00
2022-11-08T00:16:28.559Z,11.00
2022-11-08T00:19:30.605Z,11.10
2022-11-08T00:22:32.695Z,11.00
2022-11-08T00:25:34.823Z,11.00
2022-11-08T00:28:36.986Z,11.00
2022-11-08T00:31:39.061Z,11.00
2022-11-08T00:34:41.179Z,10.90
2022-11-08T00:37:43.225Z,11.00
2022-11-08T00:40:45.305Z,11.00
2022-11-08T00:43:47.351Z,10.90
2022-11-08T00:46:49.734Z,10.90
2022-11-08T00:49:51.824Z,10.90
2022-11-08T00:52:53.880Z,10.90
2022-11-08T00:56:10.071Z,10.80
2022-11-08T00:59:13.394Z,10.80
2022-11-08T01:02:15.592Z,10.80
2022-11-08T01:05:17.742Z,10.70
2022-11-08T01:08:21.806Z,10.70
2022-11-08T01:11:25.447Z,10.60
2022-11-08T01:14:27.581Z,10.60
2022-11-08T01:17:29.759Z,10.60
2022-11-08T01:20:32.045Z,10.60
2022-11-08T01:23:34.512Z,10.60
2022-11-08T01:26:36.556Z,10.60
2022-11-08T01:29:38.616Z,10.60
2022-11-08T01:32:40.663Z,10.60
2022-11-08T01:35:45.176Z,10.60
2022-11-08T01:38:47.499Z,10.60
2022-11-08T01:41:49.550Z,10.60
2022-11-08T01:45:09.102Z,10.60
2022-11-08T01:48:11.533Z,10.70
2022-11-08T01:51:14.485Z,10.70
2022-11-08T01:54:28.260Z,10.70
2022-11-08T01:57:42.231Z,10.70
2022-11-08T02:00:44.445Z,10.80
2022-11-08T02:03:47.308Z,10.80
2022-11-08T02:06:49.400Z,10.80
2022-11-08T02:09:51.437Z,10.80
2022-11-08T02:12:53.993Z,10.80
2022-11-08T02:15:56.204Z,10.80
2022-11-08T02:18:58.285Z,10.80
2022-11-08T02:22:02.209Z,10.80
2022-11-08T02:25:04.622Z,10.80
2022-11-08T02:28:06.847Z,10.80
2022-11-08T02:31:10.974Z,10.80
2022-11-08T02:34:13.028Z,10.80
2022-11-08T02:37:16.725Z,10.80
2022-11-08T02:40:18.752Z,10.70
2022-11-08T02:43:21.244Z,10.70
2022-11-08T02:46:23.345Z,10.70
2022-11-08T02:49:25.458Z,10.70
2022-11-08T02:52:27.533Z,10.60
2022-11-08T02:55:29.883Z,10.60
2022-11-08T02:58:31.969Z,10.50
2022-11-08T03:01:34.134Z,10.50
2022-11-08T03:04:36.279Z,10.50
2022-11-08T03:07:39.081Z,10.50
2022-11-08T03:10:41.189Z,10.40
2022-11-08T03:13:43.224Z,10.30
2022-11-08T03:16:45.274Z,10.30
2022-11-08T03:19:47.378Z,10.30
2022-11-08T03:22:49.408Z,10.30
2022-11-08T03:25:51.502Z,10.20
2022-11-08T03:28:53.545Z,10.20
2022-11-08T03:31:55.622Z,10.10
2022-11-08T03:34:59.661Z,10.10
2022-11-08T03:38:01.734Z,10.10
2022-11-08T03:41:03.844Z,10.00
2022-11-08T03:44:06.186Z,10.00
2022-11-08T03:47:09.099Z,10.00
2022-11-08T03:50:11.711Z,10.00
2022-11-08T03:53:13.764Z,9.90
2022-11-08T03:56:16.491Z,9.90
2022-11-08T03:59:18.529Z,9.90
2022-11-08T04:02:20.685Z,9.90
2022-11-08T04:05:22.747Z,9.90
2022-11-08T04:08:24.822Z,9.90
2022-11-08T04:11:45.649Z,9.90
2022-11-08T04:15:06.071Z,9.80
2022-11-08T04:18:26.801Z,9.80
2022-11-08T04:21:28.920Z,9.70
2022-11-08T04:24:31.077Z,9.60
2022-11-08T04:27:33.152Z,9.60
2022-11-08T04:30:35.335Z,9.60
2022-11-08T04:33:37.463Z,9.60
2022-11-08T04:36:39.584Z,9.60
2022-11-08T04:39:41.775Z,9.50
2022-11-08T04:42:46.983Z,9.50
2022-11-08T04:45:49.112Z,9.50
2022-11-08T04:48:53.110Z,9.50
2022-11-08T04:51:55.234Z,9.60
2022-11-08T04:54:57.300Z,9.60
2022-11-08T04:57:59.458Z,9.60
2022-11-08T05:01:02.640Z,9.60
2022-11-08T05:04:04.987Z,9.60
2022-11-08T05:07:12.080Z,9.50
2022-11-08T05:10:14.258Z,9.40
2022-11-08T05:13:16.351Z,9.40
2022-11-08T05:16:29.253Z,9.40
2022-11-08T05:19:49.776Z,9.30
2022-11-08T05:23:15.216Z,9.20
2022-11-08T05:26:18.275Z,9.20
2022-11-08T05:29:20.370Z,9.10
2022-11-08T05:32:22.428Z,9.10
2022-11-08T05:35:24.562Z,9.10
2022-11-08T05:38:26.626Z,9.10
2022-11-08T05:41:28.721Z,9.10
2022-11-08T05:44:30.780Z,9.10
2022-11-08T05:47:32.885Z,9.10
2022-11-08T05:50:35.290Z,9.00
2022-11-08T05:53:48.645Z,8.90
2022-11-08T05:56:51.069Z,8.90
2022-11-08T05:59:53.218Z,8.80
2022-11-08T06:02:55.376Z,8.80
2022-11-08T06:06:12.611Z,8.90
2022-11-08T06:09:14.697Z,8.80
2022-11-08T06:12:16.748Z,8.80
2022-11-08T06:15:18.874Z,8.80
2022-11-08T06:18:20.934Z,8.80
2022-11-08T06:21:23.795Z,8.70
2022-11-08T06:24:25.943Z,8.60
2022-11-08T06:27:28.124Z,8.50
2022-11-08T06:30:30.212Z,8.50
2022-11-08T06:33:32.602Z,8.50
2022-11-08T06:36:34.649Z,8.50
2022-11-08T06:39:36.730Z,8.50
2022-11-08T06:42:38.833Z,8.60
2022-11-08T06:45:40.917Z,8.50
2022-11-08T06:48:42.978Z,8.60
2022-11-08T06:51:44.995Z,8.60
2022-11-08T06:54:47.041Z,8.50
2022-11-08T06:57:49.217Z,8.60
2022-11-08T07:00:51.276Z,8.60
2022-11-08T07:03:53.313Z,8.60
2022-11-08T07:06:56.928Z,8.60
2022-11-08T07:10:03.621Z,8.50
2022-11-08T07:13:11.409Z,8.50
2022-11-08T07:16:13.805Z,8.40
2022-11-08T07:19:15.914Z,8.30
2022-11-08T07:22:17.942Z,8.20
2022-11-08T07:25:25.442Z,8.20
2022-11-08T07:28:27.506Z,8.10
2022-11-08T07:31:29.597Z,8.10
2022-11-08T07:34:32.283Z,8.10
2022-11-08T07:37:34.334Z,8.10
2022-11-08T07:40:36.375Z,8.20
2022-11-08T07:43:38.456Z,8.20
2022-11-08T07:46:51.202Z,8.20
2022-11-08T07:49:53.258Z,8.20
2022-11-08T07:52:55.342Z,8.20
2022-11-08T07:55:58.435Z,8.30
2022-11-08T07:59:00.710Z,8.20
2022-11-08T08:02:03.103Z,8.30
2022-11-08T08:05:05.609Z,8.30
2022-11-08T08:08:07.811Z,8.30
2022-11-08T08:11:10.036Z,8.30
2022-11-08T08:14:12.091Z,8.30
2022-11-08T08:17:14.250Z,8.40
2022-11-08T08:20:16.316Z,8.40
2022-11-08T08:23:18.700Z,8.50
2022-11-08T08:26:21.041Z,8.50
2022-11-08T08:29:23.107Z,8.50
2022-11-08T08:32:28.239Z,8.40
2022-11-08T08:35:37.245Z,8.30
2022-11-08T08:38:44.347Z,8.30
2022-11-08T08:41:46.830Z,8.30
2022-11-08T08:44:48.917Z,8.30
2022-11-08T08:47:55.171Z,8.40
2022-11-08T08:50:57.471Z,8.40
2022-11-08T08:53:59.540Z,8.30
2022-11-08T08:57:01.615Z,8.30
2022-11-08T09:03:26.599Z,8.60
2022-11-08T09:06:28.673Z,8.70
2022-11-08T09:09:30.757Z,8.90
2022-11-08T09:12:33.207Z,8.90
2022-11-08T09:15:35.270Z,8.80
2022-11-08T09:18:37.350Z,8.80
2022-11-08T09:21:39.445Z,8.70
2022-11-08T09:24:41.503Z,8.60
2022-11-08T09:27:43.524Z,8.60
2022-11-08T09:30:45.549Z,8.50
2022-11-08T09:33:49.709Z,8.50
2022-11-08T09:36:51.801Z,8.50
2022-11-08T09:39:54.058Z,8.50
2022-11-08T09:43:26.074Z,8.50
2022-11-08T09:46:57.537Z,8.50
2022-11-08T09:50:20.124Z,8.50
2022-11-08T09:53:34.804Z,8.60
2022-11-08T09:56:37.994Z,8.90
2022-11-08T09:59:52.831Z,9.00
2022-11-08T10:02:54.976Z,9.20
2022-11-08T10:06:11.648Z,9.20
2022-11-08T10:09:19.661Z,9.30
2022-11-08T10:12:32.792Z,9.40
2022-11-08T10:15:41.702Z,9.60
2022-11-08T10:19:34.962Z,9.40
2022-11-08T10:23:15.544Z,9.70
2022-11-08T10:26:26.898Z,9.70
2022-11-08T10:29:37.706Z,9.80
2022-11-08T10:32:39.745Z,9.90
2022-11-08T10:35:51.061Z,10.00
2022-11-08T10:39:08.989Z,10.10
2022-11-08T10:42:50.401Z,10.10
2022-11-08T10:45:52.549Z,10.30
2022-11-08T10:48:56.845Z,10.50
2022-11-08T10:52:01.576Z,10.80
2022-11-08T10:55:06.637Z,10.80
2022-11-08T10:58:31.921Z,11.00
2022-11-08T11:01:34.025Z,11.00
2022-11-08T11:04:36.125Z,10.80
2022-11-08T11:07:39.230Z,10.80
2022-11-08T11:10:48.241Z,10.70
2022-11-08T11:14:18.130Z,11.00
2022-11-08T11:17:32.928Z,11.20
2022-11-08T11:20:37.736Z,11.40
2022-11-08T11:23:54.246Z,11.80
2022-11-08T11:27:19.481Z,12.10
2022-11-08T11:30:33.890Z,12.50
2022-11-08T11:33:43.005Z,12.30
2022-11-08T11:37:07.248Z,11.80
2022-11-08T11:40:27.487Z,11.30
2022-11-08T11:44:28.490Z,11.80
2022-11-08T11:47:41.195Z,12.70
2022-11-08T11:50:48.233Z,13.90
2022-11-08T11:53:50.385Z,14.10
2022-11-08T11:57:08.515Z,12.20
2022-11-08T12:00:14.986Z,11.40
2022-11-08T12:03:51.314Z,10.80
2022-11-08T12:07:33.171Z,10.60
2022-11-08T12:10:45.878Z,10.50
2022-11-08T12:14:10.874Z,10.40
2022-11-08T12:17:28.270Z,10.40
2022-11-08T12:20:55.023Z,10.40
2022-11-08T12:24:30.628Z,10.50
2022-11-08T12:28:04.979Z,10.60
2022-11-08T12:31:35.486Z,10.50
2022-11-08T12:34:52.746Z,10.60
2022-11-08T12:38:12.029Z,10.70
2022-11-08T12:41:42.371Z,10.70
2022-11-08T12:45:12.093Z,10.80
2022-11-08T12:48:23.039Z,11.00
2022-11-08T12:52:09.147Z,11.30
2022-11-08T12:55:30.257Z,12.30
2022-11-08T12:59:01.741Z,13.70
2022-11-08T13:02:04.062Z,14.40
2022-11-08T13:05:13.422Z,14.00
2022-11-08T13:08:22.136Z,13.70
2022-11-08T13:11:50.248Z,13.50
2022-11-08T13:14:52.339Z,12.60
2022-11-08T13:18:06.450Z,13.30
2022-11-08T13:21:34.326Z,13.40
2022-11-08T13:24:45.333Z,14.80
2022-11-08T13:27:48.494Z,16.10
2022-11-08T13:31:00.001Z,15.70
2022-11-08T13:34:20.572Z,15.40
2022-11-08T13:37:42.001Z,14.40
2022-11-08T13:41:24.439Z,15.20
2022-11-08T13:45:00.121Z,15.80
2022-11-08T13:48:26.099Z,16.40
2022-11-08T13:51:33.489Z,15.20
2022-11-08T13:54:48.886Z,13.60
2022-11-08T13:58:00.113Z,12.90
2022-11-08T14:01:04.841Z,12.20
2022-11-08T14:04:40.311Z,11.90
2022-11-08T14:07:48.257Z,11.70
2022-11-08T14:11:19.155Z,11.70
2022-11-08T14:14:39.189Z,11.60
2022-11-08T14:18:01.798Z,11.60
2022-11-08T14:21:04.328Z,11.50
2022-11-08T14:24:12.166Z,11.40
2022-11-08T14:27:14.869Z,11.30
2022-11-08T14:30:21.691Z,10.70
2022-11-08T14:33:26.245Z,10.20
2022-11-08T14:36:30.223Z,10.00
2022-11-08T14:39:34.780Z,9.90
2022-11-08T14:42:36.853Z,9.90
2022-11-08T14:45:39.291Z,10.00
2022-11-08T14:49:28.081Z,12.00
2022-11-08T14:52:31.737Z,13.30
2022-11-08T14:55:33.871Z,13.90
2022-11-08T14:58:35.935Z,14.30
2022-11-08T15:01:38.094Z,13.10
2022-11-08T15:04:40.597Z,11.60
2022-11-08T15:07:42.654Z,10.50
2022-11-08T15:10:57.170Z,10.20
2022-11-08T15:14:07.056Z,10.00
2022-11-08T15:17:38.608Z,9.90
2022-11-08T15:20:53.106Z,9.80
2022-11-08T15:24:14.836Z,9.70
2022-11-08T15:27:17.058Z,9.80
2022-11-08T15:30:26.988Z,9.80
2022-11-08T15:33:40.850Z,9.80
2022-11-08T15:36:42.945Z,9.80
2022-11-08T15:39:46.080Z,9.70
2022-11-08T15:42:50.699Z,9.80
2022-11-08T15:45:53.583Z,9.90
2022-11-08T15:48:57.919Z,9.90
2022-11-08T15:51:59.969Z,9.90
2022-11-08T15:55:02.002Z,9.90
2022-11-08T15:58:04.740Z,10.00
2022-11-08T16:01:07.023Z,10.00
2022-11-08T16:04:14.946Z,10.00
2022-11-08T16:07:17.099Z,9.90
2022-11-08T16:10:36.894Z,10.00
2022-11-08T16:13:39.083Z,9.90
2022-11-08T16:16:41.170Z,9.90
2022-11-08T16:19:43.201Z,9.90
2022-11-08T16:22:45.668Z,9.90
2022-11-08T16:25:55.292Z,9.80
2022-11-08T16:28:57.487Z,9.70
2022-11-08T16:31:59.560Z,9.50
2022-11-08T16:35:01.610Z,9.40
2022-11-08T16:38:03.634Z,9.30
2022-11-08T16:41:06.078Z,9.40
2022-11-08T16:44:08.527Z,9.40
2022-11-08T16:47:12.774Z,9.30
2022-11-08T16:50:18.852Z,9.30
2022-11-08T16:53:21.529Z,9.30
2022-11-08T16:56:23.730Z,9.20
2022-11-08T16:59:25.778Z,9.30
2022-11-08T17:02:31.651Z,9.20
2022-11-08T17:05:34.536Z,9.20
2022-11-08T17:08:37.921Z,9.10
2022-11-08T17:11:45.682Z,9.00
2022-11-08T17:14:48.593Z,8.90
2022-11-08T17:17:53.203Z,8.80
2022-11-08T17:21:11.374Z,8.80
2022-11-08T17:24:24.818Z,8.70
2022-11-08T17:27:27.439Z,8.60
2022-11-08T17:30:34.318Z,8.60
2022-11-08T17:33:38.632Z,8.60
2022-11-08T17:36:41.062Z,8.50
2022-11-08T17:39:43.591Z,8.60
2022-11-08T17:42:46.579Z,8.50
2022-11-08T17:45:50.443Z,8.50
2022-11-08T17:48:52.519Z,8.40
2022-11-08T17:51:54.634Z,8.40
2022-11-08T17:54:56.842Z,8.30
2022-11-08T17:57:58.947Z,8.30
2022-11-08T18:01:02.941Z,8.20
2022-11-08T18:04:05.220Z,8.10
2022-11-08T18:07:07.547Z,8.00
2022-11-08T18:10:10.012Z,8.00
2022-11-08T18:13:12.253Z,7.90
2022-11-08T18:16:19.645Z,7.90
2022-11-08T18:19:21.830Z,7.90
2022-11-08T18:22:23.975Z,8.00
2022-11-08T18:25:26.053Z,8.00
2022-11-08T18:28:28.217Z,8.00
2022-11-08T18:31:30.715Z,8.00
2022-11-08T18:34:32.773Z,8.00
2022-11-08T18:37:34.833Z,8.10
2022-11-08T18:40:36.883Z,8.10
2022-11-08T18:43:38.966Z,8.20
2022-11-08T18:46:43.403Z,8.20
2022-11-08T18:49:45.839Z,8.30
2022-11-08T18:52:48.338Z,8.30
2022-11-08T18:55:50.610Z,8.40
2022-11-08T18:58:54.434Z,8.30
2022-11-08T19:01:56.548Z,8.30
2022-11-08T19:04:59.210Z,8.30
2022-11-08T19:08:01.303Z,8.20
2022-11-08T19:11:08.019Z,8.20
2022-11-08T19:14:10.189Z,8.20
2022-11-08T19:17:14.644Z,8.20
2022-11-08T19:20:16.887Z,8.20
2022-11-08T19:23:21.450Z,8.10
2022-11-08T19:26:25.562Z,8.10
2022-11-08T19:29:27.700Z,7.90
2022-11-08T19:32:29.742Z,7.90
2022-11-08T19:35:31.807Z,8.00
2022-11-08T19:38:35.314Z,7.90
2022-11-08T19:41:38.049Z,7.90
2022-11-08T19:44:40.301Z,7.90
2022-11-08T19:47:43.691Z,7.90
2022-11-08T19:50:45.794Z,7.90
2022-11-08T19:53:48.309Z,7.90
2022-11-08T19:57:04.783Z,7.90
2022-11-08T20:00:10.313Z,8.00
2022-11-08T20:03:14.332Z,8.10
2022-11-08T20:06:18.837Z,8.10
2022-11-08T20:09:22.694Z,8.20
2022-11-08T20:12:31.454Z,8.30
2022-11-08T20:15:33.515Z,8.30
2022-11-08T20:18:35.554Z,8.30
2022-11-08T20:21:42.290Z,8.30
2022-11-08T20:24:44.401Z,8.40
2022-11-08T20:27:46.457Z,8.40
2022-11-08T20:30:48.487Z,8.40
2022-11-08T20:33:53.143Z,8.40
2022-11-08T20:36:55.382Z,8.50
2022-11-08T20:39:57.433Z,8.60
2022-11-08T20:42:59.476Z,8.60
2022-11-08T20:46:05.964Z,8.60
2022-11-08T20:49:08.117Z,8.70
2022-11-08T20:52:10.213Z,8.70
2022-11-08T20:55:12.418Z,8.70
2022-11-08T20:58:14.444Z,8.70
2022-11-08T21:01:19.290Z,8.70
2022-11-08T21:04:21.441Z,8.70
2022-11-08T21:10:47.808Z,8.70
2022-11-08T21:13:52.538Z,8.70
2022-11-08T21:20:16.889Z,8.80
2022-11-08T21:23:19.387Z,8.70
2022-11-08T21:26:21.634Z,8.60
2022-11-08T21:29:23.685Z,8.60
2022-11-08T21:32:25.729Z,8.60
2022-11-08T21:35:27.850Z,8.60
2022-11-08T21:38:29.961Z,8.70
2022-11-08T21:41:32.021Z,8.80
2022-11-08T21:44:34.069Z,8.80
2022-11-08T21:47:36.225Z,8.90
2022-11-08T21:50:38.572Z,8.90
2022-11-08T21:53:49.396Z,8.90
2022-11-08T21:56:54.836Z,8.90
2022-11-08T21:59:56.985Z,9.00
2022-11-08T22:02:59.490Z,9.00
2022-11-08T22:06:01.637Z,9.10
2022-11-08T22:09:03.934Z,9.10
2022-11-08T22:12:06.301Z,9.10
2022-11-08T22:15:09.417Z,9.20
2022-11-08T22:18:16.286Z,9.10
2022-11-08T22:21:41.053Z,9.20
2022-11-08T22:24:44.608Z,9.20
2022-11-08T22:27:46.831Z,9.20
2022-11-08T22:30:52.441Z,9.20
2022-11-08T22:33:54.564Z,9.20
2022-11-08T22:36:56.795Z,9.20
2022-11-08T22:39:59.058Z,9.20
2022-11-08T22:43:01.258Z,9.30
2022-11-08T22:46:03.460Z,9.30
2022-11-08T22:49:05.699Z,9.30
2022-11-08T22:52:07.805Z,9.30
2022-11-08T22:55:10.123Z,9.40
2022-11-08T22:58:12.796Z,9.30
2022-11-08T23:01:15.343Z,9.40
2022-11-08T23:04:17.637Z,9.30
2022-11-08T23:07:19.820Z,9.30
2022-11-08T23:10:22.420Z,9.30
2022-11-08T23:13:43.387Z,9.20
2022-11-08T23:16:45.854Z,9.20
2022-11-08T23:20:06.773Z,9.20
2022-11-08T23:23:28.490Z,9.30
2022-11-08T23:26:49.217Z,9.30
2022-11-08T23:30:10.025Z,9.30
2022-11-08T23:33:12.240Z,9.30
2022-11-08T23:36:15.859Z,9.30
2022-11-08T23:39:18.220Z,9.30
2022-11-08T23:42:38.923Z,9.40
2022-11-08T23:45:41.024Z,9.40
2022-11-08T23:48:43.110Z,9.40
2022-11-08T23:51:45.267Z,9.40
2022-11-08T23:54:47.311Z,9.50
2022-11-08T23:57:49.421Z,9.40
